sensor_id;sensor_type;location;lat;lon;timestamp;temperature;humidity
15133;DHT22;7667;51.232;17.110;2022-12-29T00:00:21;5.90;99.90
15133;DHT22;7667;51.232;17.110;2022-12-29T00:02:48;5.80;99.90
15133;DHT22;7667;51.232;17.110;2022-12-29T00:05:16;5.80;99.90
15133;DHT22;7667;51.232;17.110;2022-12-29T00:07:44;5.80;99.90
15133;DHT22;7667;51.232;17.110;2022-12-29T00:10:11;5.70;99.90
15133;DHT22;7667;51.232;17.110;2022-12-29T00:12:38;5.80;99.90
15133;DHT22;7667;51.232;17.110;2022-12-29T00:15:25;5.80;99.90
15133;DHT22;7667;51.232;17.110;2022-12-29T00:18:04;5.70;99.90
15133;DHT22;7667;51.232;17.110;2022-12-29T00:20:36;5.70;99.90
15133;DHT22;7667;51.232;17.110;2022-12-29T00:23:23;5.70;99.90
15133;DHT22;7667;51.232;17.110;2022-12-29T00:26:16;5.60;99.90
15133;DHT22;7667;51.232;17.110;2022-12-29T00:29:04;5.50;99.90
15133;DHT22;7667;51.232;17.110;2022-12-29T00:31:52;5.60;99.90
15133;DHT22;7667;51.232;17.110;2022-12-29T00:34:38;5.60;99.90
15133;DHT22;7667;51.232;17.110;2022-12-29T00:37:24;5.60;99.90
15133;DHT22;7667;51.232;17.110;2022-12-29T00:40:11;5.60;99.90
15133;DHT22;7667;51.232;17.110;2022-12-29T00:42:57;5.60;99.90
15133;DHT22;7667;51.232;17.110;2022-12-29T00:45:59;5.50;99.90
15133;DHT22;7667;51.232;17.110;2022-12-29T00:48:27;5.60;99.90
15133;DHT22;7667;51.232;17.110;2022-12-29T00:51:12;5.60;99.90
15133;DHT22;7667;51.232;17.110;2022-12-29T00:53:40;5.50;99.90
15133;DHT22;7667;51.232;17.110;2022-12-29T00:56:07;5.50;99.90
15133;DHT22;7667;51.232;17.110;2022-12-29T00:58:35;5.50;99.90
15133;DHT22;7667;51.232;17.110;2022-12-29T01:01:04;5.50;99.90
15133;DHT22;7667;51.232;17.110;2022-12-29T01:03:34;5.50;99.90
15133;DHT22;7667;51.232;17.110;2022-12-29T01:06:05;5.50;99.90
15133;DHT22;7667;51.232;17.110;2022-12-29T01:08:34;5.50;99.90
15133;DHT22;7667;51.232;17.110;2022-12-29T01:11:11;5.60;99.90
15133;DHT22;7667;51.232;17.110;2022-12-29T01:13:39;5.60;99.90
15133;DHT22;7667;51.232;17.110;2022-12-29T01:16:09;5.60;99.90
15133;DHT22;7667;51.232;17.110;2022-12-29T01:18:36;5.60;99.90
15133;DHT22;7667;51.232;17.110;2022-12-29T01:21:06;5.60;99.90
15133;DHT22;7667;51.232;17.110;2022-12-29T01:23:33;5.60;99.90
15133;DHT22;7667;51.232;17.110;2022-12-29T01:26:15;5.60;99.90
15133;DHT22;7667;51.232;17.110;2022-12-29T01:28:44;5.60;99.90
15133;DHT22;7667;51.232;17.110;2022-12-29T01:31:14;5.50;99.90
15133;DHT22;7667;51.232;17.110;2022-12-29T01:33:42;5.50;99.90
15133;DHT22;7667;51.232;17.110;2022-12-29T01:36:14;5.60;99.90
15133;DHT22;7667;51.232;17.110;2022-12-29T01:38:43;5.50;99.90
15133;DHT22;7667;51.232;17.110;2022-12-29T01:41:12;5.50;99.90
15133;DHT22;7667;51.232;17.110;2022-12-29T01:46:41;5.50;99.90
15133;DHT22;7667;51.232;17.110;2022-12-29T01:49:15;5.50;99.90
15133;DHT22;7667;51.232;17.110;2022-12-29T01:51:53;5.50;99.90
15133;DHT22;7667;51.232;17.110;2022-12-29T01:54:29;5.40;99.90
15133;DHT22;7667;51.232;17.110;2022-12-29T01:57:02;5.40;99.90
15133;DHT22;7667;51.232;17.110;2022-12-29T01:59:36;5.30;99.90
15133;DHT22;7667;51.232;17.110;2022-12-29T02:02:11;5.30;99.90
15133;DHT22;7667;51.232;17.110;2022-12-29T02:04:41;5.20;99.90
15133;DHT22;7667;51.232;17.110;2022-12-29T02:07:22;5.20;99.90
15133;DHT22;7667;51.232;17.110;2022-12-29T02:09:53;5.10;99.90
15133;DHT22;7667;51.232;17.110;2022-12-29T02:12:22;5.00;99.90
15133;DHT22;7667;51.232;17.110;2022-12-29T02:14:55;4.90;99.90
15133;DHT22;7667;51.232;17.110;2022-12-29T02:32:18;4.70;99.90
15133;DHT22;7667;51.232;17.110;2022-12-29T02:41:08;4.70;99.90
15133;DHT22;7667;51.232;17.110;2022-12-29T02:44:22;4.70;99.90
15133;DHT22;7667;51.232;17.110;2022-12-29T02:47:00;4.70;99.90
15133;DHT22;7667;51.232;17.110;2022-12-29T02:49:50;4.70;99.90
15133;DHT22;7667;51.232;17.110;2022-12-29T02:52:31;4.70;99.90
15133;DHT22;7667;51.232;17.110;2022-12-29T02:55:03;4.70;99.90
15133;DHT22;7667;51.232;17.110;2022-12-29T02:57:34;4.70;99.90
15133;DHT22;7667;51.232;17.110;2022-12-29T03:00:15;4.70;99.90
15133;DHT22;7667;51.232;17.110;2022-12-29T03:08:34;4.80;99.90
15133;DHT22;7667;51.232;17.110;2022-12-29T03:11:12;4.80;99.90
15133;DHT22;7667;51.232;17.110;2022-12-29T03:14:14;4.80;99.90
15133;DHT22;7667;51.232;17.110;2022-12-29T03:17:08;4.80;99.90
15133;DHT22;7667;51.232;17.110;2022-12-29T03:19:48;4.80;99.90
15133;DHT22;7667;51.232;17.110;2022-12-29T03:22:22;4.90;99.90
15133;DHT22;7667;51.232;17.110;2022-12-29T03:25:26;5.00;99.90
15133;DHT22;7667;51.232;17.110;2022-12-29T03:28:03;5.00;99.90
15133;DHT22;7667;51.232;17.110;2022-12-29T03:30:34;5.10;99.90
15133;DHT22;7667;51.232;17.110;2022-12-29T03:33:06;5.10;99.90
15133;DHT22;7667;51.232;17.110;2022-12-29T03:35:38;5.20;99.90
15133;DHT22;7667;51.232;17.110;2022-12-29T03:38:25;5.30;99.90
15133;DHT22;7667;51.232;17.110;2022-12-29T03:40:59;5.40;99.90
15133;DHT22;7667;51.232;17.110;2022-12-29T03:43:29;5.40;99.90
15133;DHT22;7667;51.232;17.110;2022-12-29T03:45:57;5.40;99.90
15133;DHT22;7667;51.232;17.110;2022-12-29T03:48:24;5.30;99.90
15133;DHT22;7667;51.232;17.110;2022-12-29T03:50:52;5.30;99.90
15133;DHT22;7667;51.232;17.110;2022-12-29T03:53:20;5.30;99.90
15133;DHT22;7667;51.232;17.110;2022-12-29T03:55:48;5.30;99.90
15133;DHT22;7667;51.232;17.110;2022-12-29T03:58:16;5.40;99.90
15133;DHT22;7667;51.232;17.110;2022-12-29T04:00:44;5.40;99.90
15133;DHT22;7667;51.232;17.110;2022-12-29T04:03:11;5.50;99.90
15133;DHT22;7667;51.232;17.110;2022-12-29T04:05:39;5.50;99.90
15133;DHT22;7667;51.232;17.110;2022-12-29T04:08:06;5.50;99.90
15133;DHT22;7667;51.232;17.110;2022-12-29T04:10:34;5.50;99.90
15133;DHT22;7667;51.232;17.110;2022-12-29T04:13:01;5.50;99.90
15133;DHT22;7667;51.232;17.110;2022-12-29T04:15:29;5.50;99.90
15133;DHT22;7667;51.232;17.110;2022-12-29T04:17:56;5.50;99.90
15133;DHT22;7667;51.232;17.110;2022-12-29T04:20:24;5.40;99.90
15133;DHT22;7667;51.232;17.110;2022-12-29T04:23:10;5.50;99.90
15133;DHT22;7667;51.232;17.110;2022-12-29T04:25:37;5.50;99.90
15133;DHT22;7667;51.232;17.110;2022-12-29T04:28:05;5.50;99.90
15133;DHT22;7667;51.232;17.110;2022-12-29T04:30:35;5.50;99.90
15133;DHT22;7667;51.232;17.110;2022-12-29T04:33:02;5.50;99.90
15133;DHT22;7667;51.232;17.110;2022-12-29T04:35:30;5.50;99.90
15133;DHT22;7667;51.232;17.110;2022-12-29T04:37:57;5.50;99.90
15133;DHT22;7667;51.232;17.110;2022-12-29T04:40:24;5.60;99.90
15133;DHT22;7667;51.232;17.110;2022-12-29T04:42:52;5.60;99.90
15133;DHT22;7667;51.232;17.110;2022-12-29T04:45:19;5.70;99.90
15133;DHT22;7667;51.232;17.110;2022-12-29T04:47:47;5.70;99.90
15133;DHT22;7667;51.232;17.110;2022-12-29T04:50:14;5.80;99.90
15133;DHT22;7667;51.232;17.110;2022-12-29T04:52:43;5.80;99.90
15133;DHT22;7667;51.232;17.110;2022-12-29T04:55:11;5.80;99.90
15133;DHT22;7667;51.232;17.110;2022-12-29T04:57:38;5.80;99.90
15133;DHT22;7667;51.232;17.110;2022-12-29T05:00:07;5.90;99.90
15133;DHT22;7667;51.232;17.110;2022-12-29T05:02:37;5.80;99.90
15133;DHT22;7667;51.232;17.110;2022-12-29T05:05:05;5.80;99.90
15133;DHT22;7667;51.232;17.110;2022-12-29T05:07:33;5.80;99.90
15133;DHT22;7667;51.232;17.110;2022-12-29T05:10:01;5.80;99.90
15133;DHT22;7667;51.232;17.110;2022-12-29T05:12:33;5.90;99.90
15133;DHT22;7667;51.232;17.110;2022-12-29T05:15:02;5.90;99.90
15133;DHT22;7667;51.232;17.110;2022-12-29T05:17:30;6.00;99.90
15133;DHT22;7667;51.232;17.110;2022-12-29T05:19:58;6.00;99.90
15133;DHT22;7667;51.232;17.110;2022-12-29T05:22:25;6.10;99.90
15133;DHT22;7667;51.232;17.110;2022-12-29T05:24:53;6.10;99.90
15133;DHT22;7667;51.232;17.110;2022-12-29T05:27:20;6.10;99.90
15133;DHT22;7667;51.232;17.110;2022-12-29T05:29:48;6.10;99.90
15133;DHT22;7667;51.232;17.110;2022-12-29T05:32:15;6.10;99.90
15133;DHT22;7667;51.232;17.110;2022-12-29T05:34:44;6.10;99.90
15133;DHT22;7667;51.232;17.110;2022-12-29T05:37:12;6.10;99.90
15133;DHT22;7667;51.232;17.110;2022-12-29T05:39:40;6.10;99.90
15133;DHT22;7667;51.232;17.110;2022-12-29T05:42:07;6.10;99.90
15133;DHT22;7667;51.232;17.110;2022-12-29T05:44:35;6.00;99.90
15133;DHT22;7667;51.232;17.110;2022-12-29T05:47:02;5.90;99.90
15133;DHT22;7667;51.232;17.110;2022-12-29T05:49:30;5.80;99.90
15133;DHT22;7667;51.232;17.110;2022-12-29T05:51:57;5.70;99.90
15133;DHT22;7667;51.232;17.110;2022-12-29T05:54:25;5.70;99.90
15133;DHT22;7667;51.232;17.110;2022-12-29T05:56:52;5.80;99.90
15133;DHT22;7667;51.232;17.110;2022-12-29T05:59:20;5.80;99.90
15133;DHT22;7667;51.232;17.110;2022-12-29T06:01:47;5.90;99.90
15133;DHT22;7667;51.232;17.110;2022-12-29T06:04:15;6.00;99.90
15133;DHT22;7667;51.232;17.110;2022-12-29T06:06:43;6.10;99.90
15133;DHT22;7667;51.232;17.110;2022-12-29T06:09:10;6.30;99.90
15133;DHT22;7667;51.232;17.110;2022-12-29T06:11:38;6.40;99.90
15133;DHT22;7667;51.232;17.110;2022-12-29T06:14:05;6.50;99.90
15133;DHT22;7667;51.232;17.110;2022-12-29T06:16:33;6.50;99.90
15133;DHT22;7667;51.232;17.110;2022-12-29T06:19:00;6.50;99.90
15133;DHT22;7667;51.232;17.110;2022-12-29T06:21:28;6.60;99.90
15133;DHT22;7667;51.232;17.110;2022-12-29T06:23:55;6.60;99.90
15133;DHT22;7667;51.232;17.110;2022-12-29T06:26:23;6.70;99.90
15133;DHT22;7667;51.232;17.110;2022-12-29T06:28:50;6.70;99.90
15133;DHT22;7667;51.232;17.110;2022-12-29T06:31:18;6.80;99.90
15133;DHT22;7667;51.232;17.110;2022-12-29T06:33:45;6.80;99.90
15133;DHT22;7667;51.232;17.110;2022-12-29T06:36:16;6.90;99.90
15133;DHT22;7667;51.232;17.110;2022-12-29T06:38:44;6.90;99.90
15133;DHT22;7667;51.232;17.110;2022-12-29T06:41:11;6.90;99.90
15133;DHT22;7667;51.232;17.110;2022-12-29T06:43:38;6.90;99.90
15133;DHT22;7667;51.232;17.110;2022-12-29T06:46:06;7.00;99.90
15133;DHT22;7667;51.232;17.110;2022-12-29T06:48:34;7.10;99.90
15133;DHT22;7667;51.232;17.110;2022-12-29T06:51:01;7.10;99.90
15133;DHT22;7667;51.232;17.110;2022-12-29T06:53:28;7.10;99.90
15133;DHT22;7667;51.232;17.110;2022-12-29T06:55:56;7.00;99.90
15133;DHT22;7667;51.232;17.110;2022-12-29T06:58:23;7.00;99.90
15133;DHT22;7667;51.232;17.110;2022-12-29T07:00:51;7.00;99.90
15133;DHT22;7667;51.232;17.110;2022-12-29T07:03:18;7.00;99.90
15133;DHT22;7667;51.232;17.110;2022-12-29T07:05:46;7.00;99.90
15133;DHT22;7667;51.232;17.110;2022-12-29T07:08:13;7.10;99.90
15133;DHT22;7667;51.232;17.110;2022-12-29T07:10:41;7.10;99.90
15133;DHT22;7667;51.232;17.110;2022-12-29T07:13:09;7.10;99.90
15133;DHT22;7667;51.232;17.110;2022-12-29T07:15:37;7.10;99.90
15133;DHT22;7667;51.232;17.110;2022-12-29T07:18:04;7.20;99.90
15133;DHT22;7667;51.232;17.110;2022-12-29T07:20:32;7.20;99.90
15133;DHT22;7667;51.232;17.110;2022-12-29T07:22:59;7.20;99.90
15133;DHT22;7667;51.232;17.110;2022-12-29T07:25:27;7.30;99.90
15133;DHT22;7667;51.232;17.110;2022-12-29T07:27:55;7.40;99.90
15133;DHT22;7667;51.232;17.110;2022-12-29T07:30:23;7.50;99.90
15133;DHT22;7667;51.232;17.110;2022-12-29T07:32:50;7.50;99.90
15133;DHT22;7667;51.232;17.110;2022-12-29T07:35:18;7.60;99.90
15133;DHT22;7667;51.232;17.110;2022-12-29T07:37:45;7.60;99.90
15133;DHT22;7667;51.232;17.110;2022-12-29T07:40:13;7.50;99.90
15133;DHT22;7667;51.232;17.110;2022-12-29T07:42:41;7.50;99.90
15133;DHT22;7667;51.232;17.110;2022-12-29T07:45:09;7.30;99.90
15133;DHT22;7667;51.232;17.110;2022-12-29T07:47:37;7.20;99.90
15133;DHT22;7667;51.232;17.110;2022-12-29T07:50:04;7.20;99.90
15133;DHT22;7667;51.232;17.110;2022-12-29T07:52:32;7.40;99.90
15133;DHT22;7667;51.232;17.110;2022-12-29T07:55:00;7.80;99.90
15133;DHT22;7667;51.232;17.110;2022-12-29T07:57:27;8.10;99.90
15133;DHT22;7667;51.232;17.110;2022-12-29T07:59:58;8.20;99.90
15133;DHT22;7667;51.232;17.110;2022-12-29T08:02:26;8.10;99.90
15133;DHT22;7667;51.232;17.110;2022-12-29T08:04:53;8.00;99.90
15133;DHT22;7667;51.232;17.110;2022-12-29T08:07:21;7.80;99.90
15133;DHT22;7667;51.232;17.110;2022-12-29T08:09:48;7.70;99.90
15133;DHT22;7667;51.232;17.110;2022-12-29T08:12:16;7.70;99.90
15133;DHT22;7667;51.232;17.110;2022-12-29T08:14:44;7.80;99.90
15133;DHT22;7667;51.232;17.110;2022-12-29T08:17:12;8.10;99.90
15133;DHT22;7667;51.232;17.110;2022-12-29T08:19:39;8.40;99.90
15133;DHT22;7667;51.232;17.110;2022-12-29T08:22:07;8.50;99.90
15133;DHT22;7667;51.232;17.110;2022-12-29T08:24:34;8.50;99.90
15133;DHT22;7667;51.232;17.110;2022-12-29T08:27:02;8.60;99.90
15133;DHT22;7667;51.232;17.110;2022-12-29T08:29:43;8.60;99.90
15133;DHT22;7667;51.232;17.110;2022-12-29T08:32:11;8.70;99.90
15133;DHT22;7667;51.232;17.110;2022-12-29T08:34:39;8.70;99.90
15133;DHT22;7667;51.232;17.110;2022-12-29T08:37:06;8.70;99.90
15133;DHT22;7667;51.232;17.110;2022-12-29T08:39:34;8.70;99.90
15133;DHT22;7667;51.232;17.110;2022-12-29T08:42:01;8.70;99.90
15133;DHT22;7667;51.232;17.110;2022-12-29T08:44:29;8.80;99.90
15133;DHT22;7667;51.232;17.110;2022-12-29T08:46:56;8.80;99.90
15133;DHT22;7667;51.232;17.110;2022-12-29T08:49:24;8.70;99.90
15133;DHT22;7667;51.232;17.110;2022-12-29T08:51:52;8.50;99.90
15133;DHT22;7667;51.232;17.110;2022-12-29T08:54:19;8.50;99.90
15133;DHT22;7667;51.232;17.110;2022-12-29T08:56:47;8.40;99.90
15133;DHT22;7667;51.232;17.110;2022-12-29T08:59:14;8.40;99.90
15133;DHT22;7667;51.232;17.110;2022-12-29T09:01:42;8.30;99.90
15133;DHT22;7667;51.232;17.110;2022-12-29T09:04:09;8.30;99.90
15133;DHT22;7667;51.232;17.110;2022-12-29T09:06:41;8.20;99.90
15133;DHT22;7667;51.232;17.110;2022-12-29T09:09:09;8.20;99.90
15133;DHT22;7667;51.232;17.110;2022-12-29T09:11:38;8.20;99.90
15133;DHT22;7667;51.232;17.110;2022-12-29T09:14:05;8.20;99.90
15133;DHT22;7667;51.232;17.110;2022-12-29T09:16:33;8.30;99.90
15133;DHT22;7667;51.232;17.110;2022-12-29T09:19:02;8.30;99.90
15133;DHT22;7667;51.232;17.110;2022-12-29T09:21:31;8.40;99.90
15133;DHT22;7667;51.232;17.110;2022-12-29T09:23:58;8.50;99.90
15133;DHT22;7667;51.232;17.110;2022-12-29T09:26:26;8.50;99.90
15133;DHT22;7667;51.232;17.110;2022-12-29T09:28:53;8.50;99.90
15133;DHT22;7667;51.232;17.110;2022-12-29T09:31:21;8.40;99.90
15133;DHT22;7667;51.232;17.110;2022-12-29T09:33:49;8.40;99.90
15133;DHT22;7667;51.232;17.110;2022-12-29T09:36:16;8.50;99.90
15133;DHT22;7667;51.232;17.110;2022-12-29T09:38:44;8.50;99.90
15133;DHT22;7667;51.232;17.110;2022-12-29T09:41:26;8.50;99.90
15133;DHT22;7667;51.232;17.110;2022-12-29T09:47:11;8.40;99.90
15133;DHT22;7667;51.232;17.110;2022-12-29T09:49:44;8.50;99.90
15133;DHT22;7667;51.232;17.110;2022-12-29T09:52:21;8.60;99.90
15133;DHT22;7667;51.232;17.110;2022-12-29T10:00:23;8.80;99.90
15133;DHT22;7667;51.232;17.110;2022-12-29T10:03:14;8.80;99.90
15133;DHT22;7667;51.232;17.110;2022-12-29T10:06:06;8.90;99.90
15133;DHT22;7667;51.232;17.110;2022-12-29T10:20:48;8.90;99.90
15133;DHT22;7667;51.232;17.110;2022-12-29T10:23:40;9.00;99.90
15133;DHT22;7667;51.232;17.110;2022-12-29T10:26:21;9.10;99.90
15133;DHT22;7667;51.232;17.110;2022-12-29T10:28:57;9.30;99.90
15133;DHT22;7667;51.232;17.110;2022-12-29T10:31:45;9.40;99.90
15133;DHT22;7667;51.232;17.110;2022-12-29T10:34:42;9.50;99.90
15133;DHT22;7667;51.232;17.110;2022-12-29T10:37:33;9.60;99.90
15133;DHT22;7667;51.232;17.110;2022-12-29T10:40:31;9.60;99.90
15133;DHT22;7667;51.232;17.110;2022-12-29T10:43:13;9.60;99.90
15133;DHT22;7667;51.232;17.110;2022-12-29T10:45:50;9.60;99.90
15133;DHT22;7667;51.232;17.110;2022-12-29T10:48:31;9.70;99.90
15133;DHT22;7667;51.232;17.110;2022-12-29T10:51:02;9.70;99.90
15133;DHT22;7667;51.232;17.110;2022-12-29T10:53:38;9.70;99.90
15133;DHT22;7667;51.232;17.110;2022-12-29T10:58:57;9.80;99.90
15133;DHT22;7667;51.232;17.110;2022-12-29T11:01:34;9.80;99.90
15133;DHT22;7667;51.232;17.110;2022-12-29T11:06:59;9.90;99.90
15133;DHT22;7667;51.232;17.110;2022-12-29T11:09:29;9.90;99.90
15133;DHT22;7667;51.232;17.110;2022-12-29T11:12:29;10.00;99.90
15133;DHT22;7667;51.232;17.110;2022-12-29T11:17:46;10.10;99.90
15133;DHT22;7667;51.232;17.110;2022-12-29T11:20:34;10.10;99.90
15133;DHT22;7667;51.232;17.110;2022-12-29T11:23:03;10.20;99.90
15133;DHT22;7667;51.232;17.110;2022-12-29T11:26:12;10.10;99.90
15133;DHT22;7667;51.232;17.110;2022-12-29T11:29:05;10.10;99.90
15133;DHT22;7667;51.232;17.110;2022-12-29T11:31:51;10.10;99.90
15133;DHT22;7667;51.232;17.110;2022-12-29T11:34:25;10.10;99.90
15133;DHT22;7667;51.232;17.110;2022-12-29T11:42:23;10.30;99.90
15133;DHT22;7667;51.232;17.110;2022-12-29T11:47:56;10.50;99.90
15133;DHT22;7667;51.232;17.110;2022-12-29T11:50:30;10.60;99.90
15133;DHT22;7667;51.232;17.110;2022-12-29T11:53:02;10.50;99.90
15133;DHT22;7667;51.232;17.110;2022-12-29T11:55:32;10.40;99.90
15133;DHT22;7667;51.232;17.110;2022-12-29T11:58:02;10.40;99.90
15133;DHT22;7667;51.232;17.110;2022-12-29T12:00:34;10.50;99.90
15133;DHT22;7667;51.232;17.110;2022-12-29T12:03:13;10.50;99.90
15133;DHT22;7667;51.232;17.110;2022-12-29T12:11:01;10.40;99.90
15133;DHT22;7667;51.232;17.110;2022-12-29T12:14:17;10.30;99.90
15133;DHT22;7667;51.232;17.110;2022-12-29T12:17:19;10.30;99.90
15133;DHT22;7667;51.232;17.110;2022-12-29T12:19:58;10.20;99.90
15133;DHT22;7667;51.232;17.110;2022-12-29T12:22:38;10.20;99.90
15133;DHT22;7667;51.232;17.110;2022-12-29T12:25:40;10.20;99.90
15133;DHT22;7667;51.232;17.110;2022-12-29T12:28:50;10.20;99.90
15133;DHT22;7667;51.232;17.110;2022-12-29T12:31:56;10.20;99.90
15133;DHT22;7667;51.232;17.110;2022-12-29T12:34:35;10.30;99.90
15133;DHT22;7667;51.232;17.110;2022-12-29T12:46:38;10.20;99.90
15133;DHT22;7667;51.232;17.110;2022-12-29T12:55:41;10.20;99.90
15133;DHT22;7667;51.232;17.110;2022-12-29T12:58:30;10.20;99.90
15133;DHT22;7667;51.232;17.110;2022-12-29T13:10:18;10.30;99.90
15133;DHT22;7667;51.232;17.110;2022-12-29T13:24:54;10.20;99.90
15133;DHT22;7667;51.232;17.110;2022-12-29T13:30:38;10.20;99.90
15133;DHT22;7667;51.232;17.110;2022-12-29T13:33:23;10.30;99.90
15133;DHT22;7667;51.232;17.110;2022-12-29T13:36:42;10.30;99.90
15133;DHT22;7667;51.232;17.110;2022-12-29T13:42:18;10.40;99.90
15133;DHT22;7667;51.232;17.110;2022-12-29T13:44:51;10.50;99.90
15133;DHT22;7667;51.232;17.110;2022-12-29T13:47:44;10.60;99.90
15133;DHT22;7667;51.232;17.110;2022-12-29T13:50:19;10.70;99.90
15133;DHT22;7667;51.232;17.110;2022-12-29T13:58:57;10.10;99.90
15133;DHT22;7667;51.232;17.110;2022-12-29T14:04:13;10.30;99.90
15133;DHT22;7667;51.232;17.110;2022-12-29T14:06:44;10.20;99.90
15133;DHT22;7667;51.232;17.110;2022-12-29T14:09:41;10.00;99.90
15133;DHT22;7667;51.232;17.110;2022-12-29T14:17:39;10.00;99.90
15133;DHT22;7667;51.232;17.110;2022-12-29T14:20:21;9.90;99.90
15133;DHT22;7667;51.232;17.110;2022-12-29T14:23:01;10.00;99.90
15133;DHT22;7667;51.232;17.110;2022-12-29T14:31:52;10.10;99.90
15133;DHT22;7667;51.232;17.110;2022-12-29T14:37:02;10.00;99.90
15133;DHT22;7667;51.232;17.110;2022-12-29T14:45:05;10.10;99.90
15133;DHT22;7667;51.232;17.110;2022-12-29T14:47:43;10.00;99.90
15133;DHT22;7667;51.232;17.110;2022-12-29T14:50:34;9.60;99.90
15133;DHT22;7667;51.232;17.110;2022-12-29T14:53:06;9.40;99.90
15133;DHT22;7667;51.232;17.110;2022-12-29T14:56:11;9.10;99.90
15133;DHT22;7667;51.232;17.110;2022-12-29T15:01:49;8.90;99.90
15133;DHT22;7667;51.232;17.110;2022-12-29T15:04:25;8.80;99.90
15133;DHT22;7667;51.232;17.110;2022-12-29T15:06:54;8.70;99.90
15133;DHT22;7667;51.232;17.110;2022-12-29T15:09:34;8.60;99.90
15133;DHT22;7667;51.232;17.110;2022-12-29T15:14:56;8.60;99.90
15133;DHT22;7667;51.232;17.110;2022-12-29T15:17:30;8.60;99.90
15133;DHT22;7667;51.232;17.110;2022-12-29T15:20:02;8.60;99.90
15133;DHT22;7667;51.232;17.110;2022-12-29T15:22:44;8.50;99.90
15133;DHT22;7667;51.232;17.110;2022-12-29T15:25:15;8.40;99.90
15133;DHT22;7667;51.232;17.110;2022-12-29T15:27:52;8.30;99.90
15133;DHT22;7667;51.232;17.110;2022-12-29T15:30:23;8.30;99.90
15133;DHT22;7667;51.232;17.110;2022-12-29T15:32:51;8.20;99.90
15133;DHT22;7667;51.232;17.110;2022-12-29T15:35:33;8.00;99.90
15133;DHT22;7667;51.232;17.110;2022-12-29T15:38:14;8.00;99.90
15133;DHT22;7667;51.232;17.110;2022-12-29T15:40:56;7.80;99.90
15133;DHT22;7667;51.232;17.110;2022-12-29T15:46:27;7.60;99.90
15133;DHT22;7667;51.232;17.110;2022-12-29T15:48:57;7.50;99.90
15133;DHT22;7667;51.232;17.110;2022-12-29T15:51:33;7.50;99.90
15133;DHT22;7667;51.232;17.110;2022-12-29T15:54:06;7.40;99.90
15133;DHT22;7667;51.232;17.110;2022-12-29T15:56:42;7.30;99.90
15133;DHT22;7667;51.232;17.110;2022-12-29T15:59:28;7.30;99.90
15133;DHT22;7667;51.232;17.110;2022-12-29T16:02:01;7.30;99.90
15133;DHT22;7667;51.232;17.110;2022-12-29T16:04:38;7.20;99.90
15133;DHT22;7667;51.232;17.110;2022-12-29T16:07:32;7.20;99.90
15133;DHT22;7667;51.232;17.110;2022-12-29T16:10:41;7.10;99.90
15133;DHT22;7667;51.232;17.110;2022-12-29T16:13:29;7.10;99.90
15133;DHT22;7667;51.232;17.110;2022-12-29T16:16:19;7.10;99.90
15133;DHT22;7667;51.232;17.110;2022-12-29T16:18:53;7.10;99.90
15133;DHT22;7667;51.232;17.110;2022-12-29T16:21:33;7.10;99.90
15133;DHT22;7667;51.232;17.110;2022-12-29T16:24:06;7.00;99.90
15133;DHT22;7667;51.232;17.110;2022-12-29T16:26:36;6.90;99.90
15133;DHT22;7667;51.232;17.110;2022-12-29T16:29:06;6.80;99.90
15133;DHT22;7667;51.232;17.110;2022-12-29T16:34:29;6.80;99.90
15133;DHT22;7667;51.232;17.110;2022-12-29T16:37:04;6.70;99.90
15133;DHT22;7667;51.232;17.110;2022-12-29T16:39:46;6.70;99.90
15133;DHT22;7667;51.232;17.110;2022-12-29T16:42:43;6.60;99.90
15133;DHT22;7667;51.232;17.110;2022-12-29T16:51:38;6.40;99.90
15133;DHT22;7667;51.232;17.110;2022-12-29T16:54:19;6.40;99.90
15133;DHT22;7667;51.232;17.110;2022-12-29T16:56:52;6.40;99.90
15133;DHT22;7667;51.232;17.110;2022-12-29T16:59:30;6.30;99.90
15133;DHT22;7667;51.232;17.110;2022-12-29T17:02:21;6.30;99.90
15133;DHT22;7667;51.232;17.110;2022-12-29T17:04:52;6.30;99.90
15133;DHT22;7667;51.232;17.110;2022-12-29T17:07:24;6.40;99.90
15133;DHT22;7667;51.232;17.110;2022-12-29T17:09:53;6.30;99.90
15133;DHT22;7667;51.232;17.110;2022-12-29T17:12:25;6.40;99.90
15133;DHT22;7667;51.232;17.110;2022-12-29T17:15:05;6.30;99.90
15133;DHT22;7667;51.232;17.110;2022-12-29T17:17:47;6.20;99.90
15133;DHT22;7667;51.232;17.110;2022-12-29T17:22:52;6.20;99.90
15133;DHT22;7667;51.232;17.110;2022-12-29T17:25:26;6.20;99.90
15133;DHT22;7667;51.232;17.110;2022-12-29T17:28:03;6.10;99.90
15133;DHT22;7667;51.232;17.110;2022-12-29T17:30:33;6.20;99.90
15133;DHT22;7667;51.232;17.110;2022-12-29T17:33:05;6.10;99.90
15133;DHT22;7667;51.232;17.110;2022-12-29T17:35:35;6.10;99.90
15133;DHT22;7667;51.232;17.110;2022-12-29T17:38:17;6.10;99.90
15133;DHT22;7667;51.232;17.110;2022-12-29T17:40:47;6.10;99.90
15133;DHT22;7667;51.232;17.110;2022-12-29T17:43:15;6.00;99.90
15133;DHT22;7667;51.232;17.110;2022-12-29T17:45:51;6.00;99.90
15133;DHT22;7667;51.232;17.110;2022-12-29T17:48:23;6.00;99.90
15133;DHT22;7667;51.232;17.110;2022-12-29T17:50:52;5.90;99.90
15133;DHT22;7667;51.232;17.110;2022-12-29T17:53:22;5.90;99.90
15133;DHT22;7667;51.232;17.110;2022-12-29T17:55:52;5.90;99.90
15133;DHT22;7667;51.232;17.110;2022-12-29T17:58:27;6.00;99.90
15133;DHT22;7667;51.232;17.110;2022-12-29T18:00:58;6.00;99.90
15133;DHT22;7667;51.232;17.110;2022-12-29T18:03:32;6.20;99.90
15133;DHT22;7667;51.232;17.110;2022-12-29T18:06:02;6.30;99.90
15133;DHT22;7667;51.232;17.110;2022-12-29T18:08:34;6.30;99.90
15133;DHT22;7667;51.232;17.110;2022-12-29T18:11:02;6.30;99.90
15133;DHT22;7667;51.232;17.110;2022-12-29T18:13:32;6.30;99.90
15133;DHT22;7667;51.232;17.110;2022-12-29T18:16:13;6.40;99.90
15133;DHT22;7667;51.232;17.110;2022-12-29T18:18:40;6.40;99.90
15133;DHT22;7667;51.232;17.110;2022-12-29T18:21:17;6.40;99.90
15133;DHT22;7667;51.232;17.110;2022-12-29T18:23:46;6.50;99.90
15133;DHT22;7667;51.232;17.110;2022-12-29T18:26:23;6.50;99.90
15133;DHT22;7667;51.232;17.110;2022-12-29T18:28:58;6.50;99.90
15133;DHT22;7667;51.232;17.110;2022-12-29T18:31:30;6.60;99.90
15133;DHT22;7667;51.232;17.110;2022-12-29T18:34:01;6.50;99.90
15133;DHT22;7667;51.232;17.110;2022-12-29T18:36:33;6.50;99.90
15133;DHT22;7667;51.232;17.110;2022-12-29T18:39:01;6.60;99.90
15133;DHT22;7667;51.232;17.110;2022-12-29T18:41:29;6.60;99.90
15133;DHT22;7667;51.232;17.110;2022-12-29T18:43:57;6.70;99.90
15133;DHT22;7667;51.232;17.110;2022-12-29T18:46:25;6.80;99.90
15133;DHT22;7667;51.232;17.110;2022-12-29T18:48:53;6.90;99.90
15133;DHT22;7667;51.232;17.110;2022-12-29T18:51:22;6.80;99.90
15133;DHT22;7667;51.232;17.110;2022-12-29T18:53:51;6.70;99.90
15133;DHT22;7667;51.232;17.110;2022-12-29T18:56:21;6.70;99.90
15133;DHT22;7667;51.232;17.110;2022-12-29T18:58:50;6.60;99.90
15133;DHT22;7667;51.232;17.110;2022-12-29T19:01:25;6.60;99.90
15133;DHT22;7667;51.232;17.110;2022-12-29T19:03:54;6.60;99.90
15133;DHT22;7667;51.232;17.110;2022-12-29T19:06:22;6.50;99.90
15133;DHT22;7667;51.232;17.110;2022-12-29T19:08:49;6.40;99.90
15133;DHT22;7667;51.232;17.110;2022-12-29T19:11:16;6.40;99.90